Česky Dansk Deutsch English Español Suomi Français Magyar Italiano Nederlands norsk Polski Português svenska Türkçe

 

Het Weer

Cochabamba (Bolivië)

04:00, 21 augustus 2016 (GMT)

NWNNE
WE
SWSSE
Home            
Cochabamba Oruro Sucre La Paz / Alto Potosi San Ignacio De Moxos San Borja Trinidad Santa Cruz / El Trompillo Viru-Viru Rurrenabaque Charana Reyes Ascencion De Guarayos Apolo Camiri Santa Ana San Javier Tacna Arica Concepcion Juliaca Tarija

Om een weerknop op uw website of weblog te plaatsen, copieer onderstaande code en plak die in uw pagina. In het eerste vakje staat HTML-code, in het tweede vakje UBB-code.


Add to Google

Details

Visibility:Greater than 10000 m, 10 km, 32800 ft, 6.2 miles
Clouds:Ein wenig bewölkt at 3000 ft, 914 m
Ein wenig bewölkt at 3300 ft, 1006 m
Temperature:14°C, 57°F
Dew-point:2°C, 36°F
Atmospheric pressure:1027 hPa, 770.3 mmHg, 30.33 inHg, 1.014 atm
Relative humidity:44.1 %
METAR:SLCB 210400Z 00000KT 9999 FEW030 FEW033CB 14/02 Q1027

Snelkoppelingen

Actuele weersinformatie van de hele wereld. Voeg locaties toe met het plus (+) symbool. Deze snelkoppelingen kunnen worden toegevoegd aan Google.

Lid van de Technetium groep

website free tracking
StatCounter NetStat W3C Validator

24-11-2020 09:27:57
astro.technetium.be money.technetium.be phote.technetium.be tafeltennistafel.technetium.be www.ligfiets.net